Time;durP1;ratioP1;P1;durP2;ratioP2;P2;SDS_P1;SDS_P2;PMS_P1;PMS_P2;Temp;Humidity;BMP_temperature;BMP_pressure;BME280_temperature;BME280_humidity;BME280_pressure;Samples;Min_cycle;Max_cycle;Signal;HPM_P1;HPM_P2
2022/08/01 00:00:07;;;;;;;0.15;0.10;;;18.00;99.90;;;;;;5132088;28;20504;-86
2022/08/01 00:02:34;;;;;;;0.10;0.10;;;18.00;99.90;;;;;;5150113;28;20162;-90
2022/08/01 00:05:05;;;;;;;0.13;0.10;;;17.90;99.90;;;;;;5149259;28;20055;-89
2022/08/01 00:07:33;;;;;;;0.28;0.20;;;17.90;99.90;;;;;;5148726;28;20061;-89
2022/08/01 00:10:00;;;;;;;0.00;0.00;;;17.90;99.90;;;;;;5149237;28;20046;-86
2022/08/01 00:12:27;;;;;;;0.10;0.10;;;17.90;99.90;;;;;;5166165;27;20031;-90
2022/08/01 00:14:54;;;;;;;0.20;0.20;;;17.90;99.90;;;;;;5148798;28;20035;-86
2022/08/01 00:17:20;;;;;;;0.05;0.05;;;17.90;99.90;;;;;;5149452;28;20104;-86
2022/08/01 00:19:47;;;;;;;0.13;0.13;;;17.90;99.90;;;;;;5166107;27;20040;-87
2022/08/01 00:22:14;;;;;;;0.08;0.08;;;17.90;99.90;;;;;;5132195;28;20078;-91
2022/08/01 00:24:40;;;;;;;1.02;0.40;;;17.90;99.90;;;;;;5132997;28;20043;-86
2022/08/01 00:27:07;;;;;;;0.00;0.00;;;17.90;99.90;;;;;;5131816;28;20551;-86
2022/08/01 00:29:34;;;;;;;0.00;0.00;;;17.90;99.90;;;;;;5149231;28;20557;-90
2022/08/01 00:32:00;;;;;;;0.10;0.10;;;17.90;99.90;;;;;;5131980;28;20138;-90
2022/08/01 00:34:27;;;;;;;0.10;0.10;;;17.90;99.90;;;;;;5149233;28;20040;-87
2022/08/01 00:36:54;;;;;;;0.10;0.10;;;17.90;99.90;;;;;;5148120;28;20126;-87
2022/08/01 00:39:23;;;;;;;0.00;0.00;;;17.80;99.90;;;;;;5148948;28;20096;-90
2022/08/01 00:41:50;;;;;;;0.35;0.25;;;17.80;99.90;;;;;;5131011;28;20032;-87
2022/08/01 00:44:16;;;;;;;0.10;0.10;;;17.80;99.90;;;;;;5131620;28;20046;-90
2022/08/01 00:46:43;;;;;;;0.10;0.10;;;17.90;99.90;;;;;;5131531;28;20134;-91
2022/08/01 00:49:10;;;;;;;0.10;0.10;;;17.90;99.90;;;;;;5148063;28;20039;-86
2022/08/01 00:51:38;;;;;;;0.22;0.20;;;17.80;99.90;;;;;;5148602;28;20079;-90
2022/08/01 00:54:04;;;;;;;0.10;0.10;;;17.80;99.90;;;;;;5131378;28;20043;-86
2022/08/01 00:56:31;;;;;;;0.10;0.10;;;17.80;99.90;;;;;;5131270;28;20483;-86
2022/08/01 00:58:58;;;;;;;0.10;0.10;;;17.80;99.90;;;;;;5147905;28;20055;-86
2022/08/01 01:01:25;;;;;;;0.10;0.10;;;17.80;99.90;;;;;;5131158;28;20043;-90
2022/08/01 01:03:52;;;;;;;0.20;0.10;;;17.80;99.90;;;;;;5165115;27;20510;-87
2022/08/01 01:06:39;;;;;;;0.10;0.10;;;17.80;99.90;;;;;;5148463;28;20048;-90
2022/08/01 01:09:15;;;;;;;0.00;0.00;;;17.70;99.90;;;;;;5120211;28;20047;-86
2022/08/01 01:11:50;;;;;;;0.00;0.00;;;17.70;99.90;;;;;;5165006;27;20408;-90
2022/08/01 01:14:30;;;;;;;0.00;0.00;;;17.70;99.90;;;;;;5164761;27;20032;-86
2022/08/01 01:16:58;;;;;;;0.17;0.10;;;17.70;99.90;;;;;;5130500;28;20039;-90
2022/08/01 01:19:30;;;;;;;0.00;0.00;;;17.70;99.90;;;;;;5131127;28;20067;-90
2022/08/01 01:22:40;;;;;;;0.00;0.00;;;17.70;99.90;;;;;;5131006;28;20043;-86
2022/08/01 01:25:16;;;;;;;0.10;0.10;;;17.70;99.90;;;;;;5131038;28;20036;-86
2022/08/01 01:28:01;;;;;;;0.00;0.00;;;17.70;99.90;;;;;;5165396;27;20040;-90
2022/08/01 01:30:30;;;;;;;0.00;0.00;;;17.70;99.90;;;;;;5130611;28;20051;-86
2022/08/01 01:33:02;;;;;;;0.00;0.00;;;17.70;99.90;;;;;;5147719;28;20412;-90
2022/08/01 01:35:42;;;;;;;0.13;0.13;;;17.70;99.90;;;;;;5130623;28;20039;-86
2022/08/01 01:38:17;;;;;;;0.05;0.05;;;17.70;99.90;;;;;;5130461;28;20533;-86
2022/08/01 01:40:46;;;;;;;0.00;0.00;;;17.60;99.90;;;;;;5130223;28;20568;-86
2022/08/01 01:43:15;;;;;;;0.10;0.10;;;17.60;99.90;;;;;;5147672;28;20515;-90
2022/08/01 01:45:43;;;;;;;0.10;0.10;;;17.70;99.90;;;;;;5130808;28;20055;-86
2022/08/01 01:48:14;;;;;;;0.00;0.00;;;17.60;99.90;;;;;;5164243;27;20130;-90
2022/08/01 01:50:44;;;;;;;0.00;0.00;;;17.60;99.90;;;;;;5130930;28;20082;-86
2022/08/01 01:53:13;;;;;;;0.08;0.08;;;17.60;99.90;;;;;;5130194;28;20066;-86
2022/08/01 01:55:42;;;;;;;0.00;0.00;;;17.60;99.90;;;;;;5164984;27;20038;-90
2022/08/01 01:58:12;;;;;;;0.10;0.10;;;17.60;99.90;;;;;;5146954;28;20126;-90
2022/08/01 02:00:42;;;;;;;0.00;0.00;;;17.60;99.90;;;;;;5147721;28;20448;-86
2022/08/01 02:03:11;;;;;;;0.00;0.00;;;17.60;99.90;;;;;;5147288;28;20039;-91
2022/08/01 02:05:39;;;;;;;0.10;0.10;;;17.60;99.90;;;;;;5130286;28;20028;-91
2022/08/01 02:08:07;;;;;;;0.10;0.10;;;17.60;99.90;;;;;;5130091;28;20162;-90
2022/08/01 02:10:36;;;;;;;0.00;0.00;;;17.60;99.90;;;;;;5146653;28;20063;-86
2022/08/01 02:13:06;;;;;;;0.05;0.05;;;17.50;99.90;;;;;;5129754;28;20477;-86
2022/08/01 02:15:38;;;;;;;0.10;0.10;;;17.50;99.90;;;;;;5130057;28;20043;-86
2022/08/01 02:18:07;;;;;;;0.00;0.00;;;17.50;99.90;;;;;;5130165;28;20039;-86
2022/08/01 02:20:36;;;;;;;0.20;0.20;;;17.50;99.90;;;;;;5129972;28;20039;-85
2022/08/01 02:23:11;;;;;;;0.00;0.00;;;17.50;99.90;;;;;;5130038;28;20050;-86
2022/08/01 02:25:48;;;;;;;0.08;0.08;;;17.40;99.90;;;;;;5129987;28;20414;-86
2022/08/01 02:28:27;;;;;;;0.10;0.10;;;17.40;99.90;;;;;;5164001;27;20074;-91
2022/08/01 02:31:00;;;;;;;0.10;0.10;;;17.40;99.90;;;;;;5129774;28;20048;-86
2022/08/01 02:33:41;;;;;;;0.00;0.00;;;17.40;99.90;;;;;;5146858;28;20052;-90
2022/08/01 02:36:08;;;;;;;0.00;0.00;;;17.40;99.90;;;;;;5129508;28;20043;-91
2022/08/01 02:38:40;;;;;;;0.00;0.00;;;17.40;99.90;;;;;;5147463;28;20039;-91
2022/08/01 02:41:14;;;;;;;0.00;0.00;;;17.40;99.90;;;;;;5129447;28;20134;-86
2022/08/01 02:43:48;;;;;;;0.00;0.00;;;17.40;99.90;;;;;;5130020;28;20043;-89
2022/08/01 02:46:25;;;;;;;0.10;0.05;;;17.40;99.90;;;;;;5146637;28;20054;-90
2022/08/01 02:48:55;;;;;;;0.00;0.00;;;17.40;99.90;;;;;;5164529;28;20135;-90
2022/08/01 02:51:24;;;;;;;0.08;0.08;;;17.40;99.90;;;;;;5164056;28;20066;-91
2022/08/01 02:53:53;;;;;;;0.08;0.08;;;17.40;99.90;;;;;;5129718;28;20048;-90
2022/08/01 02:56:21;;;;;;;0.05;0.05;;;17.30;99.90;;;;;;5163393;28;20496;-90
2022/08/01 02:58:49;;;;;;;0.00;0.00;;;17.30;99.90;;;;;;5146442;28;20503;-87
2022/08/01 03:01:17;;;;;;;0.10;0.10;;;17.30;99.90;;;;;;5146480;28;20044;-91
2022/08/01 03:03:45;;;;;;;0.00;0.00;;;17.30;99.90;;;;;;5146501;28;20096;-85
2022/08/01 03:06:13;;;;;;;0.03;0.03;;;17.30;99.90;;;;;;5129583;28;20108;-86
2022/08/01 03:08:40;;;;;;;0.10;0.10;;;17.20;99.90;;;;;;5146539;28;20040;-86
2022/08/01 03:11:08;;;;;;;0.10;0.10;;;17.20;99.90;;;;;;5146102;28;20071;-86
2022/08/01 03:13:36;;;;;;;0.03;0.00;;;17.20;99.90;;;;;;5146228;28;20036;-91
2022/08/01 03:16:04;;;;;;;0.00;0.00;;;17.20;99.90;;;;;;5163926;28;20035;-85
2022/08/01 03:18:32;;;;;;;0.75;0.40;;;17.20;99.90;;;;;;5129641;28;20079;-90
2022/08/01 03:21:00;;;;;;;0.10;0.10;;;17.00;99.90;;;;;;5146495;28;20047;-86
2022/08/01 03:23:29;;;;;;;0.00;0.00;;;17.10;99.90;;;;;;5146581;28;20039;-85
2022/08/01 03:25:58;;;;;;;0.10;0.10;;;17.20;99.90;;;;;;5146200;28;20108;-85
2022/08/01 03:28:26;;;;;;;0.00;0.00;;;17.10;99.90;;;;;;5129385;28;20032;-91
2022/08/01 03:30:54;;;;;;;0.00;0.00;;;17.20;99.90;;;;;;5146099;28;20032;-91
2022/08/01 03:33:21;;;;;;;0.10;0.10;;;17.10;99.90;;;;;;5146412;28;20564;-86
2022/08/01 03:35:53;;;;;;;0.10;0.10;;;17.10;99.90;;;;;;5146083;28;20110;-90
2022/08/01 03:38:25;;;;;;;0.03;0.03;;;17.10;99.90;;;;;;5163863;28;20039;-92
2022/08/01 03:40:58;;;;;;;0.10;0.10;;;17.10;99.90;;;;;;5130870;28;20039;-86
2022/08/01 03:43:41;;;;;;;0.15;0.15;;;17.10;99.90;;;;;;5132763;28;20043;-86
2022/08/01 03:46:13;;;;;;;0.00;0.00;;;17.20;99.90;;;;;;5132363;28;20132;-91
2022/08/01 03:48:42;;;;;;;0.10;0.00;;;17.10;99.90;;;;;;5132912;28;20189;-90
2022/08/01 03:51:13;;;;;;;0.00;0.00;;;17.10;99.90;;;;;;5149551;28;20057;-89
2022/08/01 03:53:42;;;;;;;0.00;0.00;;;17.10;99.90;;;;;;5132752;28;20039;-91
2022/08/01 03:56:10;;;;;;;0.20;0.20;;;17.10;99.90;;;;;;5132545;28;20043;-90
2022/08/01 03:58:40;;;;;;;0.00;0.00;;;17.10;99.90;;;;;;5133043;28;20059;-86
2022/08/01 04:01:09;;;;;;;0.03;0.03;;;17.10;99.90;;;;;;5132950;28;20067;-86
2022/08/01 04:03:36;;;;;;;0.00;0.00;;;17.00;99.90;;;;;;5132171;28;20075;-86
2022/08/01 04:06:08;;;;;;;0.10;0.10;;;17.10;99.90;;;;;;5149915;28;20096;-91
2022/08/01 04:08:36;;;;;;;0.10;0.10;;;17.00;99.90;;;;;;5149878;28;20047;-91
2022/08/01 04:11:03;;;;;;;0.00;0.00;;;17.00;99.90;;;;;;5132964;28;20040;-86
2022/08/01 04:13:32;;;;;;;0.20;0.03;;;17.40;99.90;;;;;;5149329;28;20561;-91
2022/08/01 04:15:59;;;;;;;0.10;0.10;;;16.90;99.90;;;;;;5149269;28;20079;-91
2022/08/01 04:18:26;;;;;;;0.10;0.10;;;16.80;99.90;;;;;;5131797;28;20086;-86
2022/08/01 04:20:53;;;;;;;0.10;0.10;;;16.80;99.90;;;;;;5132773;28;20051;-91
2022/08/01 04:23:24;;;;;;;0.28;0.28;;;16.80;99.90;;;;;;5132676;28;20044;-91
2022/08/01 04:25:52;;;;;;;0.05;0.05;;;16.70;99.90;;;;;;5133127;28;20044;-90
2022/08/01 04:28:20;;;;;;;0.17;0.05;;;16.70;99.90;;;;;;5148864;28;20047;-86
2022/08/01 04:30:51;;;;;;;0.00;0.00;;;16.70;99.90;;;;;;5132152;28;20064;-90
2022/08/01 04:33:20;;;;;;;0.55;0.10;;;16.60;99.90;;;;;;5166569;27;20039;-90
2022/08/01 04:35:49;;;;;;;0.10;0.10;;;16.50;99.90;;;;;;5149342;28;20050;-91
2022/08/01 04:38:21;;;;;;;0.10;0.10;;;16.50;99.90;;;;;;5149161;28;20377;-91
2022/08/01 04:40:50;;;;;;;0.20;0.10;;;16.50;99.90;;;;;;5132985;28;20079;-91
2022/08/01 04:43:18;;;;;;;0.10;0.10;;;16.50;99.90;;;;;;5148634;28;20058;-86
2022/08/01 04:45:47;;;;;;;0.43;0.30;;;16.50;99.90;;;;;;5131928;28;20053;-86
2022/08/01 04:48:16;;;;;;;0.10;0.10;;;16.50;99.90;;;;;;5132039;28;20090;-91
2022/08/01 04:50:44;;;;;;;0.17;0.13;;;16.50;99.90;;;;;;5166153;27;20040;-90
2022/08/01 04:53:16;;;;;;;0.03;0.03;;;16.40;99.90;;;;;;5147583;28;20043;-91
2022/08/01 04:55:44;;;;;;;0.45;0.15;;;16.50;99.90;;;;;;5148365;28;20100;-86
2022/08/01 04:58:11;;;;;;;0.60;0.10;;;16.50;99.90;;;;;;5132008;28;20432;-91
2022/08/01 05:00:38;;;;;;;0.03;0.03;;;16.50;99.90;;;;;;5130942;28;20039;-85
2022/08/01 05:03:05;;;;;;;0.10;0.10;;;16.40;99.90;;;;;;5148598;28;20126;-86
2022/08/01 05:05:31;;;;;;;0.20;0.13;;;16.50;99.90;;;;;;5147813;28;20050;-86
2022/08/01 05:07:58;;;;;;;0.10;0.10;;;16.50;99.90;;;;;;5131424;28;20079;-86
2022/08/01 05:10:25;;;;;;;0.10;0.10;;;16.50;99.90;;;;;;5131090;28;20043;-85
2022/08/01 05:12:52;;;;;;;0.00;0.00;;;16.60;99.90;;;;;;5148154;28;20071;-86
2022/08/01 05:15:19;;;;;;;0.13;0.13;;;16.50;99.90;;;;;;5149110;28;20067;-92
2022/08/01 05:17:46;;;;;;;0.15;0.10;;;16.60;99.90;;;;;;5148287;28;20052;-85
2022/08/01 05:20:13;;;;;;;0.00;0.00;;;16.60;99.90;;;;;;5148559;28;20056;-91
2022/08/01 05:22:39;;;;;;;0.00;0.00;;;16.70;99.90;;;;;;5130764;28;20043;-86
2022/08/01 05:25:06;;;;;;;0.20;0.20;;;16.60;99.90;;;;;;5131110;28;20416;-91
2022/08/01 05:27:39;;;;;;;0.30;0.10;;;16.70;99.90;;;;;;5147769;28;20047;-86
2022/08/01 05:30:07;;;;;;;0.00;0.00;;;16.70;99.90;;;;;;5147192;28;20080;-86
2022/08/01 05:32:35;;;;;;;0.10;0.10;;;16.70;99.90;;;;;;5130723;28;20051;-86
2022/08/01 05:35:02;;;;;;;0.10;0.10;;;16.80;99.90;;;;;;5148381;28;20054;-90
2022/08/01 05:37:29;;;;;;;0.08;0.08;;;16.80;99.90;;;;;;5131507;28;20071;-86
2022/08/01 05:39:56;;;;;;;0.00;0.00;;;16.80;99.90;;;;;;5130782;28;20452;-91
2022/08/01 05:42:23;;;;;;;0.13;0.10;;;16.90;99.90;;;;;;5148381;28;20076;-91
2022/08/01 05:44:50;;;;;;;0.00;0.00;;;16.90;99.90;;;;;;5130536;28;20082;-85
2022/08/01 05:47:17;;;;;;;0.00;0.00;;;16.90;99.90;;;;;;5148124;28;20047;-85
2022/08/01 05:49:45;;;;;;;0.03;0.03;;;16.90;99.90;;;;;;5147711;28;20047;-86
2022/08/01 05:52:12;;;;;;;0.20;0.20;;;16.90;99.90;;;;;;5130751;28;20071;-91
2022/08/01 05:54:39;;;;;;;0.13;0.10;;;16.90;99.90;;;;;;5147566;28;20031;-86
2022/08/01 05:57:05;;;;;;;0.10;0.10;;;16.90;99.90;;;;;;5147438;28;20130;-92
2022/08/01 05:59:33;;;;;;;0.10;0.10;;;16.90;99.90;;;;;;5130806;28;20035;-86
2022/08/01 06:01:59;;;;;;;0.38;0.15;;;16.90;99.90;;;;;;5147099;28;20040;-92
2022/08/01 06:04:26;;;;;;;0.10;0.10;;;16.90;99.90;;;;;;5147582;28;20042;-91
2022/08/01 06:06:53;;;;;;;0.10;0.10;;;16.90;99.90;;;;;;5164638;27;20426;-92
2022/08/01 06:09:20;;;;;;;0.68;0.30;;;16.90;99.90;;;;;;5147213;28;20038;-93
2022/08/01 06:11:46;;;;;;;0.10;0.10;;;16.90;99.90;;;;;;5130175;28;20446;-85
2022/08/01 06:14:13;;;;;;;0.00;0.00;;;16.90;99.90;;;;;;5130293;28;20122;-85
2022/08/01 06:16:40;;;;;;;0.00;0.00;;;16.90;99.90;;;;;;5149492;28;20093;-85
2022/08/01 06:19:06;;;;;;;2.63;0.45;;;17.00;99.90;;;;;;5164073;27;20051;-85
2022/08/01 06:21:33;;;;;;;0.10;0.10;;;17.00;99.90;;;;;;5146160;28;20039;-86
2022/08/01 06:24:00;;;;;;;0.22;0.15;;;17.00;99.90;;;;;;5147697;28;20130;-86
2022/08/01 06:26:26;;;;;;;0.00;0.00;;;17.00;99.90;;;;;;5129810;28;20504;-91
2022/08/01 06:28:53;;;;;;;0.10;0.10;;;17.00;99.90;;;;;;5130168;28;20938;-91
2022/08/01 06:31:20;;;;;;;0.90;0.43;;;17.00;99.90;;;;;;5130292;28;20503;-86
2022/08/01 06:33:46;;;;;;;0.10;0.10;;;17.00;99.90;;;;;;5146860;28;20050;-85
2022/08/01 06:36:13;;;;;;;0.10;0.10;;;17.00;99.90;;;;;;5130048;28;20502;-85
2022/08/01 06:38:42;;;;;;;0.45;0.20;;;16.90;99.90;;;;;;5129539;28;20028;-86
2022/08/01 06:41:09;;;;;;;0.47;0.20;;;16.80;99.90;;;;;;5146835;28;20400;-85
2022/08/01 06:43:36;;;;;;;0.10;0.10;;;16.90;99.90;;;;;;5146791;28;20055;-86
2022/08/01 06:46:03;;;;;;;0.10;0.10;;;16.90;99.90;;;;;;5129856;28;20051;-86
2022/08/01 06:48:30;;;;;;;0.00;0.00;;;17.00;99.90;;;;;;5146865;28;20077;-86
2022/08/01 06:51:09;;;;;;;0.17;0.10;;;17.00;99.90;;;;;;5129295;28;20500;-92
2022/08/01 06:53:37;;;;;;;0.10;0.10;;;17.00;99.90;;;;;;5147365;28;20039;-92
2022/08/01 06:56:05;;;;;;;0.10;0.10;;;17.00;99.90;;;;;;5163917;28;20450;-85
2022/08/01 06:58:34;;;;;;;0.03;0.03;;;17.00;99.90;;;;;;5146652;28;20089;-86
2022/08/01 07:01:01;;;;;;;0.00;0.00;;;17.00;99.90;;;;;;5130144;28;20381;-85
2022/08/01 07:03:27;;;;;;;0.85;0.32;;;17.00;99.90;;;;;;5129450;28;20047;-92
2022/08/01 07:05:54;;;;;;;0.40;0.22;;;17.00;99.90;;;;;;5128899;28;20470;-91
2022/08/01 07:08:21;;;;;;;0.00;0.00;;;17.00;99.90;;;;;;5129969;28;20039;-91
2022/08/01 07:10:47;;;;;;;0.00;0.00;;;17.00;99.90;;;;;;5163429;28;20040;-86
2022/08/01 07:13:20;;;;;;;0.13;0.13;;;17.00;99.90;;;;;;5129751;28;20078;-86
2022/08/01 07:15:47;;;;;;;0.15;0.15;;;17.00;99.90;;;;;;5130976;28;20100;-91
2022/08/01 07:18:14;;;;;;;0.10;0.10;;;17.00;99.90;;;;;;5168016;27;20058;-86
2022/08/01 07:20:41;;;;;;;0.08;0.08;;;17.00;99.90;;;;;;5150755;28;20036;-92
2022/08/01 07:23:08;;;;;;;0.00;0.00;;;17.00;99.90;;;;;;5134337;28;20059;-86
2022/08/01 07:25:34;;;;;;;0.10;0.10;;;17.00;99.90;;;;;;5150861;28;20032;-92
2022/08/01 07:28:01;;;;;;;0.08;0.08;;;17.00;99.90;;;;;;5133302;28;20045;-92
2022/08/01 07:30:28;;;;;;;0.10;0.10;;;17.00;99.90;;;;;;5167380;27;20707;-91
2022/08/01 07:32:54;;;;;;;0.05;0.05;;;17.00;99.90;;;;;;5133264;28;20043;-91
2022/08/01 07:35:21;;;;;;;0.10;0.10;;;17.00;99.90;;;;;;5150503;28;20075;-91
2022/08/01 07:37:48;;;;;;;0.00;0.00;;;17.10;99.90;;;;;;5133060;28;20089;-86
2022/08/01 07:40:17;;;;;;;0.98;0.45;;;17.10;99.90;;;;;;5150046;28;20043;-86
2022/08/01 07:42:44;;;;;;;0.10;0.10;;;17.10;99.90;;;;;;5149513;28;20128;-85
2022/08/01 07:45:11;;;;;;;0.43;0.13;;;17.10;99.90;;;;;;5149935;28;20567;-86
2022/08/01 07:47:38;;;;;;;0.00;0.00;;;17.10;99.90;;;;;;5149933;28;20083;-91
2022/08/01 07:50:07;;;;;;;0.20;0.20;;;17.20;99.90;;;;;;5133018;28;20081;-91
2022/08/01 07:52:34;;;;;;;1.38;0.40;;;17.30;99.90;;;;;;5133258;28;20043;-91
2022/08/01 07:55:01;;;;;;;0.05;0.05;;;17.30;99.90;;;;;;5149748;28;20038;-92
2022/08/01 07:57:27;;;;;;;0.35;0.30;;;17.40;99.90;;;;;;5132979;28;20850;-92
2022/08/01 07:59:54;;;;;;;0.52;0.30;;;17.40;99.90;;;;;;5132626;28;20126;-86
2022/08/01 08:02:21;;;;;;;0.00;0.00;;;17.50;99.90;;;;;;5132566;28;20073;-90
2022/08/01 08:04:48;;;;;;;0.10;0.10;;;17.50;99.90;;;;;;5149172;28;20043;-86
2022/08/01 08:07:15;;;;;;;0.35;0.08;;;17.60;99.90;;;;;;5132612;28;20054;-91
2022/08/01 08:09:41;;;;;;;0.10;0.10;;;17.60;99.90;;;;;;5132487;28;20464;-91
2022/08/01 08:12:09;;;;;;;0.20;0.20;;;17.70;99.90;;;;;;5149431;28;20039;-91
2022/08/01 08:14:36;;;;;;;0.32;0.25;;;17.70;99.90;;;;;;5150011;28;20074;-91
2022/08/01 08:17:03;;;;;;;0.13;0.13;;;17.80;99.90;;;;;;5149197;28;20114;-92
2022/08/01 08:19:33;;;;;;;0.03;0.03;;;17.80;99.90;;;;;;5132547;28;20038;-86
2022/08/01 08:22:00;;;;;;;0.17;0.10;;;17.90;99.90;;;;;;5131934;28;20094;-86
2022/08/01 08:24:27;;;;;;;0.30;0.30;;;18.00;99.90;;;;;;5166703;27;20047;-91
2022/08/01 08:26:56;;;;;;;0.10;0.10;;;18.10;99.90;;;;;;5148553;28;20185;-91
2022/08/01 08:29:23;;;;;;;0.20;0.20;;;18.20;99.90;;;;;;5149746;28;20710;-91
2022/08/01 08:31:50;;;;;;;2.53;0.40;;;18.30;99.90;;;;;;5165705;27;20042;-86
2022/08/01 08:34:17;;;;;;;0.00;0.00;;;18.30;99.90;;;;;;5149123;28;20601;-86
2022/08/01 08:36:47;;;;;;;0.10;0.10;;;18.50;99.90;;;;;;5149296;28;20047;-91
2022/08/01 08:39:14;;;;;;;0.10;0.10;;;18.70;99.90;;;;;;5148750;28;20040;-86
2022/08/01 08:41:41;;;;;;;0.10;0.10;;;18.60;99.90;;;;;;5131902;28;20056;-92
2022/08/01 08:44:09;;;;;;;0.10;0.10;;;18.50;99.90;;;;;;5148867;28;20596;-91
2022/08/01 08:46:44;;;;;;;1.13;0.20;;;18.50;99.90;;;;;;5148698;28;20051;-86
2022/08/01 08:49:14;;;;;;;0.03;0.03;;;18.40;99.90;;;;;;5131577;28;20035;-86
2022/08/01 08:51:42;;;;;;;0.30;0.20;;;18.50;99.90;;;;;;5148462;28;20584;-86
2022/08/01 08:54:12;;;;;;;0.00;0.00;;;18.60;99.90;;;;;;5165419;27;20161;-90
2022/08/01 08:56:40;;;;;;;0.08;0.08;;;18.60;99.90;;;;;;5131509;28;20104;-86
2022/08/01 08:59:07;;;;;;;0.25;0.13;;;18.80;99.90;;;;;;5131016;28;20093;-89
2022/08/01 09:01:34;;;;;;;0.77;0.30;;;18.90;99.90;;;;;;5131934;28;20071;-86
2022/08/01 09:04:03;;;;;;;0.13;0.05;;;18.90;99.90;;;;;;5131016;28;20047;-86
2022/08/01 09:06:31;;;;;;;0.17;0.17;;;18.90;99.90;;;;;;5148661;28;20408;-90
2022/08/01 09:08:59;;;;;;;0.05;0.05;;;18.90;99.90;;;;;;5131156;28;20046;-86
2022/08/01 09:11:26;;;;;;;0.13;0.13;;;18.90;99.90;;;;;;5148726;28;20122;-86
2022/08/01 09:14:06;;;;;;;0.08;0.00;;;18.90;99.90;;;;;;5165366;27;20094;-90
2022/08/01 09:16:39;;;;;;;0.93;0.43;;;19.00;99.90;;;;;;5165658;27;20082;-86
2022/08/01 09:19:09;;;;;;;0.20;0.10;;;19.00;99.90;;;;;;5131327;28;20043;-86
2022/08/01 09:21:36;;;;;;;0.10;0.10;;;19.10;99.90;;;;;;5130981;28;20130;-90
2022/08/01 09:24:05;;;;;;;0.15;0.13;;;19.10;99.90;;;;;;5147807;28;20063;-90
2022/08/01 09:26:34;;;;;;;0.30;0.25;;;19.30;99.90;;;;;;5131040;28;20100;-86
2022/08/01 09:29:07;;;;;;;0.10;0.10;;;19.40;99.90;;;;;;5130848;28;20039;-86
2022/08/01 09:31:42;;;;;;;0.10;0.10;;;19.50;99.90;;;;;;5165351;27;20057;-90
2022/08/01 09:34:09;;;;;;;0.10;0.10;;;19.60;99.90;;;;;;5148358;28;20091;-90
2022/08/01 09:36:51;;;;;;;0.65;0.22;;;19.60;99.90;;;;;;5131067;28;20048;-86
2022/08/01 09:39:19;;;;;;;0.45;0.40;;;19.60;99.90;;;;;;5147260;28;20734;-90
2022/08/01 09:41:47;;;;;;;0.20;0.20;;;19.70;99.90;;;;;;5131177;28;20043;-90
2022/08/01 09:44:17;;;;;;;0.10;0.10;;;19.70;99.90;;;;;;5147578;28;20086;-90
2022/08/01 09:46:53;;;;;;;0.77;0.32;;;19.90;99.90;;;;;;5130584;28;20082;-86
2022/08/01 09:49:37;;;;;;;0.05;0.05;;;19.90;99.90;;;;;;5147298;28;20527;-91
2022/08/01 09:52:18;;;;;;;0.10;0.10;;;20.00;99.90;;;;;;5147384;28;20051;-91
2022/08/01 09:54:54;;;;;;;0.10;0.10;;;19.90;99.90;;;;;;5164390;27;20780;-87
2022/08/01 09:57:21;;;;;;;0.10;0.10;;;19.90;99.90;;;;;;5147054;28;20084;-87
2022/08/01 09:59:53;;;;;;;0.20;0.10;;;20.00;99.90;;;;;;5110101;28;20123;-87
2022/08/01 10:02:42;;;;;;;0.00;0.00;;;20.10;99.90;;;;;;5130813;28;20035;-91
2022/08/01 10:05:10;;;;;;;0.20;0.20;;;20.10;99.90;;;;;;5129959;28;20039;-91
2022/08/01 10:08:03;;;;;;;0.10;0.10;;;20.20;99.90;;;;;;5164865;27;20393;-87
2022/08/01 10:10:30;;;;;;;0.10;0.10;;;20.20;99.90;;;;;;5130176;28;20031;-87
2022/08/01 10:12:59;;;;;;;0.13;0.10;;;20.40;99.90;;;;;;5130320;28;20039;-90
2022/08/01 10:15:27;;;;;;;0.10;0.10;;;20.30;99.90;;;;;;5130709;28;20396;-90
2022/08/01 10:18:00;;;;;;;0.50;0.20;;;20.40;99.90;;;;;;5130593;28;20032;-91
2022/08/01 10:20:32;;;;;;;0.20;0.15;;;20.60;99.90;;;;;;5130308;28;20104;-87
2022/08/01 10:23:03;;;;;;;0.20;0.10;;;20.70;99.90;;;;;;5146873;28;20133;-90
2022/08/01 10:25:36;;;;;;;0.10;0.10;;;20.70;99.90;;;;;;5147684;28;20051;-87
2022/08/01 10:28:17;;;;;;;0.45;0.20;;;20.70;99.90;;;;;;5130288;28;20047;-87
2022/08/01 10:30:45;;;;;;;0.13;0.10;;;20.80;99.90;;;;;;5164707;27;20043;-91
2022/08/01 10:33:12;;;;;;;0.50;0.38;;;21.00;99.90;;;;;;5147193;28;20130;-87
2022/08/01 10:35:39;;;;;;;0.40;0.20;;;20.80;99.90;;;;;;5130087;28;20089;-90
2022/08/01 10:38:07;;;;;;;0.30;0.20;;;20.80;99.90;;;;;;5147530;28;20035;-90
2022/08/01 10:40:35;;;;;;;1.45;0.52;;;20.70;99.90;;;;;;5130384;28;20192;-88
2022/08/01 10:43:02;;;;;;;0.40;0.20;;;20.60;99.90;;;;;;5146942;28;20043;-88
2022/08/01 10:45:30;;;;;;;0.10;0.10;;;20.50;99.90;;;;;;5130840;28;20130;-88
2022/08/01 10:47:58;;;;;;;0.10;0.10;;;20.50;99.90;;;;;;5146634;28;20056;-87
2022/08/01 10:50:32;;;;;;;0.47;0.25;;;20.40;99.90;;;;;;5166719;27;20040;-88
2022/08/01 10:53:15;;;;;;;0.20;0.20;;;20.40;99.90;;;;;;5134625;28;20126;-87
2022/08/01 10:55:50;;;;;;;1.13;0.45;;;20.60;99.90;;;;;;5134280;28;20062;-90
2022/08/01 10:58:25;;;;;;;0.13;0.10;;;20.70;99.90;;;;;;5134167;28;20185;-88
2022/08/01 11:01:14;;;;;;;0.15;0.15;;;20.80;99.90;;;;;;5134236;28;20071;-88
2022/08/01 11:04:05;;;;;;;0.52;0.20;;;20.80;99.90;;;;;;5168498;27;20126;-88
2022/08/01 11:06:43;;;;;;;0.40;0.20;;;20.60;99.90;;;;;;5133976;28;20055;-90
2022/08/01 11:09:12;;;;;;;0.10;0.10;;;20.60;99.90;;;;;;5133958;28;20126;-88
2022/08/01 11:12:00;;;;;;;0.40;0.25;;;20.50;99.90;;;;;;5168190;27;20040;-88
2022/08/01 11:14:27;;;;;;;0.40;0.30;;;20.60;99.90;;;;;;5134005;28;20063;-88
2022/08/01 11:16:53;;;;;;;0.30;0.30;;;20.80;99.90;;;;;;5150987;28;20031;-90
2022/08/01 11:19:21;;;;;;;0.20;0.20;;;20.70;99.90;;;;;;5150845;28;20039;-87
2022/08/01 11:21:54;;;;;;;0.10;0.10;;;20.50;99.90;;;;;;5133738;28;20035;-88
2022/08/01 11:24:47;;;;;;;0.28;0.20;;;20.40;99.90;;;;;;5167953;27;20138;-90
2022/08/01 11:27:21;;;;;;;0.55;0.20;;;20.30;99.90;;;;;;5130883;28;20519;-90
2022/08/01 11:30:10;;;;;;;0.10;0.10;;;20.30;99.90;;;;;;5134259;28;20055;-88
2022/08/01 11:32:55;;;;;;;0.00;0.00;;;20.20;99.90;;;;;;5168357;27;20094;-90
2022/08/01 11:35:26;;;;;;;0.10;0.10;;;20.20;99.90;;;;;;5133088;28;20050;-88
2022/08/01 11:37:56;;;;;;;0.20;0.20;;;20.10;99.90;;;;;;5150703;28;20050;-88
2022/08/01 11:40:28;;;;;;;0.45;0.30;;;20.10;99.90;;;;;;5149711;28;20043;-90
2022/08/01 11:43:13;;;;;;;0.30;0.20;;;20.20;99.90;;;;;;5133596;28;20103;-90
2022/08/01 11:45:56;;;;;;;0.10;0.10;;;20.30;99.90;;;;;;5167302;27;20035;-88
2022/08/01 11:48:28;;;;;;;0.20;0.20;;;20.30;99.90;;;;;;5133218;28;20040;-88
2022/08/01 11:50:57;;;;;;;0.10;0.10;;;20.40;99.90;;;;;;5133756;28;20046;-88
2022/08/01 11:53:24;;;;;;;0.10;0.10;;;20.50;99.90;;;;;;5150042;28;20044;-90
2022/08/01 11:55:52;;;;;;;0.15;0.10;;;20.50;99.90;;;;;;5150725;28;20040;-90
2022/08/01 11:58:24;;;;;;;0.15;0.15;;;20.60;99.90;;;;;;5149972;28;20031;-90
2022/08/01 12:00:53;;;;;;;0.22;0.15;;;20.50;99.90;;;;;;5132709;28;20104;-89
2022/08/01 12:03:25;;;;;;;0.10;0.10;;;20.40;99.90;;;;;;5149980;28;20483;-88
2022/08/01 12:05:52;;;;;;;0.13;0.13;;;20.20;99.90;;;;;;5133233;28;20039;-90
2022/08/01 12:08:33;;;;;;;0.28;0.25;;;20.20;99.90;;;;;;5132635;28;20380;-88
2022/08/01 12:11:00;;;;;;;0.50;0.25;;;20.20;99.90;;;;;;5132805;28;20496;-90
2022/08/01 12:13:28;;;;;;;0.10;0.10;;;20.30;99.90;;;;;;5149480;28;20502;-88
2022/08/01 12:15:56;;;;;;;0.22;0.20;;;20.40;99.90;;;;;;5133577;28;20040;-88
2022/08/01 12:18:22;;;;;;;1.23;0.50;;;20.50;99.90;;;;;;5149482;28;20039;-90
2022/08/01 12:20:49;;;;;;;0.20;0.20;;;20.40;99.90;;;;;;5133184;28;20092;-90
2022/08/01 12:23:16;;;;;;;0.43;0.28;;;20.40;99.90;;;;;;5132521;28;20063;-88
2022/08/01 12:25:43;;;;;;;6.22;0.50;;;20.40;99.90;;;;;;5166839;27;20404;-88
2022/08/01 12:28:13;;;;;;;0.17;0.17;;;20.40;99.90;;;;;;5167075;27;20035;-90
2022/08/01 12:30:41;;;;;;;0.73;0.28;;;20.50;99.90;;;;;;5165236;27;20047;-87
2022/08/01 12:33:10;;;;;;;0.20;0.20;;;20.50;99.90;;;;;;5132649;28;20378;-90
2022/08/01 12:35:38;;;;;;;0.20;0.20;;;20.50;99.90;;;;;;5132311;28;20644;-88
2022/08/01 12:38:15;;;;;;;0.20;0.20;;;20.50;99.90;;;;;;5149468;28;20067;-87
2022/08/01 12:40:44;;;;;;;0.93;0.40;;;20.40;99.90;;;;;;5132369;28;20040;-90
2022/08/01 12:43:22;;;;;;;1.10;0.47;;;20.50;99.90;;;;;;5132520;28;20088;-88
2022/08/01 12:45:50;;;;;;;0.10;0.10;;;20.60;99.90;;;;;;5132648;28;20107;-89
2022/08/01 12:48:19;;;;;;;0.00;0.00;;;20.60;99.90;;;;;;5131739;28;20055;-89
2022/08/01 12:50:49;;;;;;;0.17;0.17;;;20.50;99.90;;;;;;5132078;28;20039;-90
2022/08/01 12:53:18;;;;;;;0.10;0.10;;;20.40;99.90;;;;;;5166302;27;20039;-89
2022/08/01 12:55:47;;;;;;;0.45;0.30;;;20.40;99.90;;;;;;5148983;28;20066;-90
2022/08/01 12:58:16;;;;;;;0.20;0.20;;;20.40;99.90;;;;;;5131748;28;20084;-87
2022/08/01 13:00:45;;;;;;;0.10;0.10;;;20.40;99.90;;;;;;5131452;28;20126;-90